sensor_id;sensor_type;location;lat;lon;timestamp;temperature;humidity
54192;DHT22;40101;53.002;6.488;2023-03-01T00:01:03;-0.40;99.90
54192;DHT22;40101;53.002;6.488;2023-03-01T00:03:29;-0.70;99.90
54192;DHT22;40101;53.002;6.488;2023-03-01T00:05:55;-0.50;99.90
54192;DHT22;40101;53.002;6.488;2023-03-01T00:08:21;-0.60;99.90
54192;DHT22;40101;53.002;6.488;2023-03-01T00:10:46;-0.70;99.90
54192;DHT22;40101;53.002;6.488;2023-03-01T00:13:12;-0.70;99.90
54192;DHT22;40101;53.002;6.488;2023-03-01T00:15:39;-0.80;99.90
54192;DHT22;40101;53.002;6.488;2023-03-01T00:18:05;-0.70;99.90
54192;DHT22;40101;53.002;6.488;2023-03-01T00:20:31;-0.80;99.90
54192;DHT22;40101;53.002;6.488;2023-03-01T00:22:57;-0.80;99.90
54192;DHT22;40101;53.002;6.488;2023-03-01T00:25:22;-0.90;99.90
54192;DHT22;40101;53.002;6.488;2023-03-01T00:27:48;-0.90;99.90
54192;DHT22;40101;53.002;6.488;2023-03-01T00:30:15;-0.90;99.90
54192;DHT22;40101;53.002;6.488;2023-03-01T00:32:40;-0.90;99.90
54192;DHT22;40101;53.002;6.488;2023-03-01T00:35:06;-1.00;99.90
54192;DHT22;40101;53.002;6.488;2023-03-01T00:37:32;-1.00;99.90
54192;DHT22;40101;53.002;6.488;2023-03-01T00:39:58;-1.00;99.90
54192;DHT22;40101;53.002;6.488;2023-03-01T00:42:23;-1.00;99.90
54192;DHT22;40101;53.002;6.488;2023-03-01T00:44:49;-0.90;99.90
54192;DHT22;40101;53.002;6.488;2023-03-01T00:47:14;-0.90;99.90
54192;DHT22;40101;53.002;6.488;2023-03-01T00:49:40;-0.90;99.90
54192;DHT22;40101;53.002;6.488;2023-03-01T00:52:06;-1.00;99.90
54192;DHT22;40101;53.002;6.488;2023-03-01T00:54:31;-1.00;99.90
54192;DHT22;40101;53.002;6.488;2023-03-01T00:56:57;-1.00;99.90
54192;DHT22;40101;53.002;6.488;2023-03-01T00:59:23;-1.00;99.90
54192;DHT22;40101;53.002;6.488;2023-03-01T01:01:48;-1.00;99.90
54192;DHT22;40101;53.002;6.488;2023-03-01T01:04:15;-0.90;99.90
54192;DHT22;40101;53.002;6.488;2023-03-01T01:06:43;-0.90;99.90
54192;DHT22;40101;53.002;6.488;2023-03-01T01:09:11;-0.90;99.90
54192;DHT22;40101;53.002;6.488;2023-03-01T01:11:43;-0.90;99.90
54192;DHT22;40101;53.002;6.488;2023-03-01T01:14:09;-0.80;99.90
54192;DHT22;40101;53.002;6.488;2023-03-01T01:16:35;-0.50;99.90
54192;DHT22;40101;53.002;6.488;2023-03-01T01:19:01;-0.80;99.90
54192;DHT22;40101;53.002;6.488;2023-03-01T01:21:27;-0.80;99.90
54192;DHT22;40101;53.002;6.488;2023-03-01T01:23:53;-0.80;99.90
54192;DHT22;40101;53.002;6.488;2023-03-01T01:26:25;-0.80;99.90
54192;DHT22;40101;53.002;6.488;2023-03-01T01:28:51;-0.80;99.90
54192;DHT22;40101;53.002;6.488;2023-03-01T01:31:16;-0.80;99.90
54192;DHT22;40101;53.002;6.488;2023-03-01T01:33:42;-0.90;99.90
54192;DHT22;40101;53.002;6.488;2023-03-01T01:36:08;-0.90;99.90
54192;DHT22;40101;53.002;6.488;2023-03-01T01:38:35;-0.90;99.90
54192;DHT22;40101;53.002;6.488;2023-03-01T01:41:01;-0.90;99.90
54192;DHT22;40101;53.002;6.488;2023-03-01T01:43:34;-0.90;99.90
54192;DHT22;40101;53.002;6.488;2023-03-01T01:48:44;-1.00;99.90
54192;DHT22;40101;53.002;6.488;2023-03-01T01:51:15;-0.80;99.90
54192;DHT22;40101;53.002;6.488;2023-03-01T01:53:44;-1.00;99.90
54192;DHT22;40101;53.002;6.488;2023-03-01T01:56:12;-1.00;99.90
54192;DHT22;40101;53.002;6.488;2023-03-01T01:58:40;-1.10;99.90
54192;DHT22;40101;53.002;6.488;2023-03-01T02:01:07;-1.10;99.90
54192;DHT22;40101;53.002;6.488;2023-03-01T02:03:34;-1.10;99.90
54192;DHT22;40101;53.002;6.488;2023-03-01T02:06:13;-1.10;99.90
54192;DHT22;40101;53.002;6.488;2023-03-01T02:08:42;-1.20;99.90
54192;DHT22;40101;53.002;6.488;2023-03-01T02:11:09;-1.20;99.90
54192;DHT22;40101;53.002;6.488;2023-03-01T02:13:36;-1.20;99.90
54192;DHT22;40101;53.002;6.488;2023-03-01T02:16:13;-1.20;99.90
54192;DHT22;40101;53.002;6.488;2023-03-01T02:18:41;-1.20;99.90
54192;DHT22;40101;53.002;6.488;2023-03-01T02:21:23;-1.30;99.90
54192;DHT22;40101;53.002;6.488;2023-03-01T02:23:54;-1.30;99.90
54192;DHT22;40101;53.002;6.488;2023-03-01T02:26:33;-1.40;99.90
54192;DHT22;40101;53.002;6.488;2023-03-01T02:29:02;-1.40;99.90
54192;DHT22;40101;53.002;6.488;2023-03-01T02:31:28;-1.50;99.90
54192;DHT22;40101;53.002;6.488;2023-03-01T02:34:21;-1.50;99.90
54192;DHT22;40101;53.002;6.488;2023-03-01T02:36:49;-1.50;99.90
54192;DHT22;40101;53.002;6.488;2023-03-01T02:39:37;-1.50;99.90
54192;DHT22;40101;53.002;6.488;2023-03-01T02:42:11;-1.60;99.90
54192;DHT22;40101;53.002;6.488;2023-03-01T02:44:37;-1.60;99.90
54192;DHT22;40101;53.002;6.488;2023-03-01T02:47:04;-1.70;99.90
54192;DHT22;40101;53.002;6.488;2023-03-01T02:49:33;-1.70;99.90
54192;DHT22;40101;53.002;6.488;2023-03-01T02:52:37;-1.80;99.90
54192;DHT22;40101;53.002;6.488;2023-03-01T02:55:16;-1.80;99.90
54192;DHT22;40101;53.002;6.488;2023-03-01T02:57:44;-1.80;99.90
54192;DHT22;40101;53.002;6.488;2023-03-01T03:00:19;-1.80;99.90
54192;DHT22;40101;53.002;6.488;2023-03-01T03:02:47;-1.80;99.90
54192;DHT22;40101;53.002;6.488;2023-03-01T03:05:20;-1.80;99.90
54192;DHT22;40101;53.002;6.488;2023-03-01T03:07:47;-1.80;99.90
54192;DHT22;40101;53.002;6.488;2023-03-01T03:10:29;-1.90;99.90
54192;DHT22;40101;53.002;6.488;2023-03-01T03:12:57;-1.90;99.90
54192;DHT22;40101;53.002;6.488;2023-03-01T03:15:24;-1.90;99.90
54192;DHT22;40101;53.002;6.488;2023-03-01T03:17:50;-1.90;99.90
54192;DHT22;40101;53.002;6.488;2023-03-01T03:20:18;-2.00;99.90
54192;DHT22;40101;53.002;6.488;2023-03-01T03:22:46;-2.00;99.90
54192;DHT22;40101;53.002;6.488;2023-03-01T03:25:12;-2.00;99.90
54192;DHT22;40101;53.002;6.488;2023-03-01T03:27:39;-2.00;99.90
54192;DHT22;40101;53.002;6.488;2023-03-01T03:30:06;-2.10;99.90
54192;DHT22;40101;53.002;6.488;2023-03-01T03:32:41;-2.10;99.90
54192;DHT22;40101;53.002;6.488;2023-03-01T03:35:08;-2.10;99.90
54192;DHT22;40101;53.002;6.488;2023-03-01T03:37:41;-2.20;99.90
54192;DHT22;40101;53.002;6.488;2023-03-01T03:40:26;-2.20;99.90
54192;DHT22;40101;53.002;6.488;2023-03-01T03:42:52;-2.20;99.90
54192;DHT22;40101;53.002;6.488;2023-03-01T03:45:18;-2.30;99.90
54192;DHT22;40101;53.002;6.488;2023-03-01T03:47:44;-2.30;99.90
54192;DHT22;40101;53.002;6.488;2023-03-01T03:50:12;-2.30;99.90
54192;DHT22;40101;53.002;6.488;2023-03-01T03:52:38;-2.30;99.90
54192;DHT22;40101;53.002;6.488;2023-03-01T03:55:05;-2.30;99.90
54192;DHT22;40101;53.002;6.488;2023-03-01T03:57:35;-2.30;99.90
54192;DHT22;40101;53.002;6.488;2023-03-01T04:00:01;-2.30;99.90
54192;DHT22;40101;53.002;6.488;2023-03-01T04:02:29;-2.40;99.90
54192;DHT22;40101;53.002;6.488;2023-03-01T04:04:54;-2.40;99.90
54192;DHT22;40101;53.002;6.488;2023-03-01T04:07:20;-2.40;99.90
54192;DHT22;40101;53.002;6.488;2023-03-01T04:09:46;-2.40;99.90
54192;DHT22;40101;53.002;6.488;2023-03-01T04:12:11;-2.00;99.90
54192;DHT22;40101;53.002;6.488;2023-03-01T04:14:37;-2.30;99.90
54192;DHT22;40101;53.002;6.488;2023-03-01T04:17:03;-2.30;99.90
54192;DHT22;40101;53.002;6.488;2023-03-01T04:19:31;-2.30;99.90
54192;DHT22;40101;53.002;6.488;2023-03-01T04:22:02;-2.30;99.90
54192;DHT22;40101;53.002;6.488;2023-03-01T04:24:33;-2.30;99.90
54192;DHT22;40101;53.002;6.488;2023-03-01T04:26:59;-2.20;99.90
54192;DHT22;40101;53.002;6.488;2023-03-01T04:29:24;-2.40;99.90
54192;DHT22;40101;53.002;6.488;2023-03-01T04:31:50;-2.40;99.90
54192;DHT22;40101;53.002;6.488;2023-03-01T04:34:15;-2.50;99.90
54192;DHT22;40101;53.002;6.488;2023-03-01T04:36:41;-2.50;99.90
54192;DHT22;40101;53.002;6.488;2023-03-01T04:39:06;-2.50;99.90
54192;DHT22;40101;53.002;6.488;2023-03-01T04:41:38;-2.50;99.90
54192;DHT22;40101;53.002;6.488;2023-03-01T04:44:09;-2.50;99.90
54192;DHT22;40101;53.002;6.488;2023-03-01T04:46:35;-2.50;99.90
54192;DHT22;40101;53.002;6.488;2023-03-01T04:49:02;-2.50;99.90
54192;DHT22;40101;53.002;6.488;2023-03-01T04:51:27;-2.50;99.90
54192;DHT22;40101;53.002;6.488;2023-03-01T04:53:53;-2.50;99.90
54192;DHT22;40101;53.002;6.488;2023-03-01T04:56:19;-2.50;99.90
54192;DHT22;40101;53.002;6.488;2023-03-01T04:58:45;-2.50;99.90
54192;DHT22;40101;53.002;6.488;2023-03-01T05:01:13;-2.50;99.90
54192;DHT22;40101;53.002;6.488;2023-03-01T05:03:48;-2.50;99.90
54192;DHT22;40101;53.002;6.488;2023-03-01T05:06:14;-2.60;99.90
54192;DHT22;40101;53.002;6.488;2023-03-01T05:08:41;-2.30;99.90
54192;DHT22;40101;53.002;6.488;2023-03-01T05:11:07;-2.60;99.90
54192;DHT22;40101;53.002;6.488;2023-03-01T05:13:35;-2.60;99.90
54192;DHT22;40101;53.002;6.488;2023-03-01T05:16:02;-2.60;99.90
54192;DHT22;40101;53.002;6.488;2023-03-01T05:18:29;-2.70;99.90
54192;DHT22;40101;53.002;6.488;2023-03-01T05:21:02;-2.70;99.90
54192;DHT22;40101;53.002;6.488;2023-03-01T05:23:30;-2.70;99.90
54192;DHT22;40101;53.002;6.488;2023-03-01T05:26:04;-2.70;99.90
54192;DHT22;40101;53.002;6.488;2023-03-01T05:28:31;-2.70;99.90
54192;DHT22;40101;53.002;6.488;2023-03-01T05:30:57;-2.80;99.90
54192;DHT22;40101;53.002;6.488;2023-03-01T05:33:24;-2.90;99.90
54192;DHT22;40101;53.002;6.488;2023-03-01T05:35:50;-2.90;99.90
54192;DHT22;40101;53.002;6.488;2023-03-01T05:38:17;-3.00;99.90
54192;DHT22;40101;53.002;6.488;2023-03-01T05:40:45;-3.00;99.90
54192;DHT22;40101;53.002;6.488;2023-03-01T05:43:12;-3.00;99.90
54192;DHT22;40101;53.002;6.488;2023-03-01T05:45:39;-3.10;99.90
54192;DHT22;40101;53.002;6.488;2023-03-01T05:48:06;-3.10;99.90
54192;DHT22;40101;53.002;6.488;2023-03-01T05:50:38;-3.10;99.90
54192;DHT22;40101;53.002;6.488;2023-03-01T05:53:10;-3.10;99.90
54192;DHT22;40101;53.002;6.488;2023-03-01T05:55:37;-3.10;99.90
54192;DHT22;40101;53.002;6.488;2023-03-01T05:58:05;-3.10;99.90
54192;DHT22;40101;53.002;6.488;2023-03-01T06:00:31;-3.10;99.90
54192;DHT22;40101;53.002;6.488;2023-03-01T06:02:58;-3.10;99.90
54192;DHT22;40101;53.002;6.488;2023-03-01T06:05:24;-3.10;99.90
54192;DHT22;40101;53.002;6.488;2023-03-01T06:07:50;-3.10;99.90
54192;DHT22;40101;53.002;6.488;2023-03-01T06:10:17;-3.10;99.90
54192;DHT22;40101;53.002;6.488;2023-03-01T06:12:44;-3.10;99.90
54192;DHT22;40101;53.002;6.488;2023-03-01T06:15:11;-3.10;99.90
54192;DHT22;40101;53.002;6.488;2023-03-01T06:17:39;-3.20;99.90
54192;DHT22;40101;53.002;6.488;2023-03-01T06:20:08;-3.20;99.90
54192;DHT22;40101;53.002;6.488;2023-03-01T06:22:35;-3.20;99.90
54192;DHT22;40101;53.002;6.488;2023-03-01T06:25:00;-3.20;99.90
54192;DHT22;40101;53.002;6.488;2023-03-01T06:27:26;-3.20;99.90
54192;DHT22;40101;53.002;6.488;2023-03-01T06:29:51;-3.20;99.90
54192;DHT22;40101;53.002;6.488;2023-03-01T06:32:17;-3.20;99.90
54192;DHT22;40101;53.002;6.488;2023-03-01T06:34:43;-3.20;99.90
54192;DHT22;40101;53.002;6.488;2023-03-01T06:37:08;-3.10;99.90
54192;DHT22;40101;53.002;6.488;2023-03-01T06:39:34;-3.00;99.90
54192;DHT22;40101;53.002;6.488;2023-03-01T06:42:00;-2.90;99.90
54192;DHT22;40101;53.002;6.488;2023-03-01T06:44:26;-2.80;99.90
54192;DHT22;40101;53.002;6.488;2023-03-01T06:46:52;-2.70;99.90
54192;DHT22;40101;53.002;6.488;2023-03-01T06:49:17;-2.70;99.90
54192;DHT22;40101;53.002;6.488;2023-03-01T06:51:44;-2.50;99.90
54192;DHT22;40101;53.002;6.488;2023-03-01T06:54:10;-2.50;99.90
54192;DHT22;40101;53.002;6.488;2023-03-01T06:56:36;-2.40;99.90
54192;DHT22;40101;53.002;6.488;2023-03-01T06:59:01;-2.30;99.90
54192;DHT22;40101;53.002;6.488;2023-03-01T07:01:28;-2.20;99.90
54192;DHT22;40101;53.002;6.488;2023-03-01T07:03:54;-2.10;99.90
54192;DHT22;40101;53.002;6.488;2023-03-01T07:06:20;-2.10;99.90
54192;DHT22;40101;53.002;6.488;2023-03-01T07:08:46;-2.00;99.90
54192;DHT22;40101;53.002;6.488;2023-03-01T07:11:12;-1.90;99.90
54192;DHT22;40101;53.002;6.488;2023-03-01T07:13:38;-1.80;99.90
54192;DHT22;40101;53.002;6.488;2023-03-01T07:16:04;-1.70;99.90
54192;DHT22;40101;53.002;6.488;2023-03-01T07:18:30;-1.60;99.90
54192;DHT22;40101;53.002;6.488;2023-03-01T07:20:55;-1.40;99.90
54192;DHT22;40101;53.002;6.488;2023-03-01T07:23:21;-1.30;99.90
54192;DHT22;40101;53.002;6.488;2023-03-01T07:25:56;-1.20;99.90
54192;DHT22;40101;53.002;6.488;2023-03-01T07:28:25;-1.00;99.90
54192;DHT22;40101;53.002;6.488;2023-03-01T07:30:50;-0.90;99.90
54192;DHT22;40101;53.002;6.488;2023-03-01T07:33:17;-0.80;99.90
54192;DHT22;40101;53.002;6.488;2023-03-01T07:35:42;-0.70;99.90
54192;DHT22;40101;53.002;6.488;2023-03-01T07:38:08;-0.50;99.90
54192;DHT22;40101;53.002;6.488;2023-03-01T07:40:34;-0.40;99.90
54192;DHT22;40101;53.002;6.488;2023-03-01T07:43:00;-0.30;99.90
54192;DHT22;40101;53.002;6.488;2023-03-01T07:45:27;-0.20;99.90
54192;DHT22;40101;53.002;6.488;2023-03-01T07:47:54;0.50;99.90
54192;DHT22;40101;53.002;6.488;2023-03-01T07:50:20;1.90;99.90
54192;DHT22;40101;53.002;6.488;2023-03-01T07:52:47;3.30;99.90
54192;DHT22;40101;53.002;6.488;2023-03-01T07:55:14;4.70;99.90
54192;DHT22;40101;53.002;6.488;2023-03-01T07:57:40;5.80;99.90
54192;DHT22;40101;53.002;6.488;2023-03-01T08:00:07;6.70;99.90
54192;DHT22;40101;53.002;6.488;2023-03-01T08:02:33;7.60;99.90
54192;DHT22;40101;53.002;6.488;2023-03-01T08:04:58;8.40;99.90
54192;DHT22;40101;53.002;6.488;2023-03-01T08:07:24;9.00;99.90
54192;DHT22;40101;53.002;6.488;2023-03-01T08:09:55;9.60;99.90
54192;DHT22;40101;53.002;6.488;2023-03-01T08:12:20;10.10;99.90
54192;DHT22;40101;53.002;6.488;2023-03-01T08:14:46;10.70;99.90
54192;DHT22;40101;53.002;6.488;2023-03-01T08:17:15;11.00;99.90
54192;DHT22;40101;53.002;6.488;2023-03-01T08:19:42;11.40;99.90
54192;DHT22;40101;53.002;6.488;2023-03-01T08:22:07;11.60;99.90
54192;DHT22;40101;53.002;6.488;2023-03-01T08:24:33;11.60;99.90
54192;DHT22;40101;53.002;6.488;2023-03-01T08:26:58;11.50;99.90
54192;DHT22;40101;53.002;6.488;2023-03-01T08:29:24;11.50;99.90
54192;DHT22;40101;53.002;6.488;2023-03-01T08:31:50;11.80;99.90
54192;DHT22;40101;53.002;6.488;2023-03-01T08:34:17;11.80;99.90
54192;DHT22;40101;53.002;6.488;2023-03-01T08:36:45;12.10;99.90
54192;DHT22;40101;53.002;6.488;2023-03-01T08:39:13;12.30;99.90
54192;DHT22;40101;53.002;6.488;2023-03-01T08:41:39;12.40;99.90
54192;DHT22;40101;53.002;6.488;2023-03-01T08:44:06;12.50;99.90
54192;DHT22;40101;53.002;6.488;2023-03-01T08:46:35;12.50;99.90
54192;DHT22;40101;53.002;6.488;2023-03-01T08:49:04;12.70;99.90
54192;DHT22;40101;53.002;6.488;2023-03-01T08:51:30;12.80;99.90
54192;DHT22;40101;53.002;6.488;2023-03-01T08:53:58;13.00;99.90
54192;DHT22;40101;53.002;6.488;2023-03-01T08:56:23;13.00;99.90
54192;DHT22;40101;53.002;6.488;2023-03-01T08:58:49;13.20;99.90
54192;DHT22;40101;53.002;6.488;2023-03-01T09:01:17;13.50;99.90
54192;DHT22;40101;53.002;6.488;2023-03-01T09:03:44;13.70;99.40
54192;DHT22;40101;53.002;6.488;2023-03-01T09:06:10;13.80;98.70
54192;DHT22;40101;53.002;6.488;2023-03-01T09:08:37;13.90;98.50
54192;DHT22;40101;53.002;6.488;2023-03-01T09:11:05;14.10;98.10
54192;DHT22;40101;53.002;6.488;2023-03-01T09:13:31;14.10;97.70
54192;DHT22;40101;53.002;6.488;2023-03-01T09:16:05;14.20;97.50
54192;DHT22;40101;53.002;6.488;2023-03-01T09:18:31;14.30;96.30
54192;DHT22;40101;53.002;6.488;2023-03-01T09:21:05;14.50;97.00
54192;DHT22;40101;53.002;6.488;2023-03-01T09:23:35;14.40;96.00
54192;DHT22;40101;53.002;6.488;2023-03-01T09:26:02;14.50;96.30
54192;DHT22;40101;53.002;6.488;2023-03-01T09:28:28;14.40;96.10
54192;DHT22;40101;53.002;6.488;2023-03-01T09:30:58;14.40;96.30
54192;DHT22;40101;53.002;6.488;2023-03-01T09:33:25;14.30;96.00
54192;DHT22;40101;53.002;6.488;2023-03-01T09:35:59;14.40;96.00
54192;DHT22;40101;53.002;6.488;2023-03-01T09:38:25;14.60;95.10
54192;DHT22;40101;53.002;6.488;2023-03-01T09:40:51;14.80;95.50
54192;DHT22;40101;53.002;6.488;2023-03-01T09:43:29;15.20;94.60
54192;DHT22;40101;53.002;6.488;2023-03-01T09:45:59;15.50;93.80
54192;DHT22;40101;53.002;6.488;2023-03-01T09:48:29;15.70;92.90
54192;DHT22;40101;53.002;6.488;2023-03-01T09:50:58;15.50;92.60
54192;DHT22;40101;53.002;6.488;2023-03-01T09:53:31;15.30;92.70
54192;DHT22;40101;53.002;6.488;2023-03-01T10:01:35;15.60;91.00
54192;DHT22;40101;53.002;6.488;2023-03-01T10:07:05;16.00;90.80
54192;DHT22;40101;53.002;6.488;2023-03-01T10:09:42;16.10;90.20
54192;DHT22;40101;53.002;6.488;2023-03-01T10:12:12;16.20;89.50
54192;DHT22;40101;53.002;6.488;2023-03-01T10:19:52;15.90;85.20
54192;DHT22;40101;53.002;6.488;2023-03-01T10:22:21;15.90;84.50
54192;DHT22;40101;53.002;6.488;2023-03-01T10:24:49;15.70;84.30
54192;DHT22;40101;53.002;6.488;2023-03-01T10:27:22;15.60;83.60
54192;DHT22;40101;53.002;6.488;2023-03-01T10:30:29;15.50;83.80
54192;DHT22;40101;53.002;6.488;2023-03-01T10:32:58;15.30;80.40
54192;DHT22;40101;53.002;6.488;2023-03-01T10:35:28;15.50;82.00
54192;DHT22;40101;53.002;6.488;2023-03-01T10:38:09;15.00;79.10
54192;DHT22;40101;53.002;6.488;2023-03-01T10:40:53;14.30;78.30
54192;DHT22;40101;53.002;6.488;2023-03-01T10:43:20;13.40;81.60
54192;DHT22;40101;53.002;6.488;2023-03-01T10:45:46;12.10;85.80
54192;DHT22;40101;53.002;6.488;2023-03-01T10:48:26;11.10;89.10
54192;DHT22;40101;53.002;6.488;2023-03-01T10:53:34;9.90;92.80
54192;DHT22;40101;53.002;6.488;2023-03-01T10:56:07;9.50;94.50
54192;DHT22;40101;53.002;6.488;2023-03-01T10:58:35;9.10;95.00
54192;DHT22;40101;53.002;6.488;2023-03-01T11:06:32;8.60;98.40
54192;DHT22;40101;53.002;6.488;2023-03-01T11:09:18;8.50;99.10
54192;DHT22;40101;53.002;6.488;2023-03-01T11:11:44;8.50;99.70
54192;DHT22;40101;53.002;6.488;2023-03-01T11:14:25;8.30;99.70
54192;DHT22;40101;53.002;6.488;2023-03-01T11:17:13;8.30;99.10
54192;DHT22;40101;53.002;6.488;2023-03-01T11:19:40;8.30;99.30
54192;DHT22;40101;53.002;6.488;2023-03-01T11:22:16;8.30;99.40
54192;DHT22;40101;53.002;6.488;2023-03-01T11:24:49;8.20;99.50
54192;DHT22;40101;53.002;6.488;2023-03-01T11:27:28;8.20;99.90
54192;DHT22;40101;53.002;6.488;2023-03-01T11:30:03;8.20;99.00
54192;DHT22;40101;53.002;6.488;2023-03-01T11:32:36;8.20;99.90
54192;DHT22;40101;53.002;6.488;2023-03-01T11:35:23;8.20;99.90
54192;DHT22;40101;53.002;6.488;2023-03-01T11:48:38;8.20;99.90
54192;DHT22;40101;53.002;6.488;2023-03-01T12:24:18;8.30;99.90
54192;DHT22;40101;53.002;6.488;2023-03-01T12:46:35;8.10;99.90
54192;DHT22;40101;53.002;6.488;2023-03-01T12:51:31;8.00;99.90
54192;DHT22;40101;53.002;6.488;2023-03-01T12:54:01;8.00;99.90
54192;DHT22;40101;53.002;6.488;2023-03-01T12:56:32;8.00;99.90
54192;DHT22;40101;53.002;6.488;2023-03-01T12:59:17;8.00;99.90
54192;DHT22;40101;53.002;6.488;2023-03-01T13:04:23;7.90;99.90
54192;DHT22;40101;53.002;6.488;2023-03-01T13:07:21;7.90;99.90
54192;DHT22;40101;53.002;6.488;2023-03-01T13:31:03;8.00;99.90
54192;DHT22;40101;53.002;6.488;2023-03-01T13:35:57;7.90;99.90
54192;DHT22;40101;53.002;6.488;2023-03-01T13:38:46;7.80;99.90
54192;DHT22;40101;53.002;6.488;2023-03-01T13:41:17;7.80;99.90
54192;DHT22;40101;53.002;6.488;2023-03-01T13:46:38;7.80;99.90
54192;DHT22;40101;53.002;6.488;2023-03-01T13:49:04;7.80;99.90
54192;DHT22;40101;53.002;6.488;2023-03-01T13:51:29;7.80;99.90
54192;DHT22;40101;53.002;6.488;2023-03-01T13:53:56;7.80;99.90
54192;DHT22;40101;53.002;6.488;2023-03-01T13:56:28;7.80;99.90
54192;DHT22;40101;53.002;6.488;2023-03-01T13:59:02;7.80;99.90
54192;DHT22;40101;53.002;6.488;2023-03-01T14:01:32;7.80;99.90
54192;DHT22;40101;53.002;6.488;2023-03-01T14:03:59;7.80;99.90
54192;DHT22;40101;53.002;6.488;2023-03-01T14:06:30;7.80;99.90
54192;DHT22;40101;53.002;6.488;2023-03-01T14:09:23;7.80;99.90
54192;DHT22;40101;53.002;6.488;2023-03-01T14:14:48;7.80;99.90
54192;DHT22;40101;53.002;6.488;2023-03-01T14:19:56;7.90;99.90
54192;DHT22;40101;53.002;6.488;2023-03-01T14:22:26;7.90;99.90
54192;DHT22;40101;53.002;6.488;2023-03-01T14:24:59;7.80;99.90
54192;DHT22;40101;53.002;6.488;2023-03-01T14:27:37;7.80;99.90
54192;DHT22;40101;53.002;6.488;2023-03-01T14:30:15;7.80;99.90
54192;DHT22;40101;53.002;6.488;2023-03-01T14:33:34;7.80;99.90
54192;DHT22;40101;53.002;6.488;2023-03-01T14:35:41;7.70;99.90
54192;DHT22;40101;53.002;6.488;2023-03-01T14:38:27;7.70;99.90
54192;DHT22;40101;53.002;6.488;2023-03-01T14:40:58;7.70;99.90
54192;DHT22;40101;53.002;6.488;2023-03-01T14:43:24;7.70;99.90
54192;DHT22;40101;53.002;6.488;2023-03-01T14:45:53;7.60;99.90
54192;DHT22;40101;53.002;6.488;2023-03-01T14:48:19;7.70;99.90
54192;DHT22;40101;53.002;6.488;2023-03-01T14:50:45;7.70;99.90
54192;DHT22;40101;53.002;6.488;2023-03-01T14:53:24;7.70;99.90
54192;DHT22;40101;53.002;6.488;2023-03-01T14:56:00;7.70;99.90
54192;DHT22;40101;53.002;6.488;2023-03-01T14:58:31;7.90;99.90
54192;DHT22;40101;53.002;6.488;2023-03-01T15:01:04;7.70;99.90
54192;DHT22;40101;53.002;6.488;2023-03-01T15:03:37;7.70;99.90
54192;DHT22;40101;53.002;6.488;2023-03-01T15:06:05;7.70;99.90
54192;DHT22;40101;53.002;6.488;2023-03-01T15:08:31;7.70;99.90
54192;DHT22;40101;53.002;6.488;2023-03-01T15:11:04;7.70;99.90
54192;DHT22;40101;53.002;6.488;2023-03-01T15:13:33;7.60;99.90
54192;DHT22;40101;53.002;6.488;2023-03-01T15:16:09;7.60;99.90
54192;DHT22;40101;53.002;6.488;2023-03-01T15:18:36;7.60;99.90
54192;DHT22;40101;53.002;6.488;2023-03-01T15:21:15;7.60;99.90
54192;DHT22;40101;53.002;6.488;2023-03-01T15:23:41;7.60;99.90
54192;DHT22;40101;53.002;6.488;2023-03-01T15:26:25;7.60;99.90
54192;DHT22;40101;53.002;6.488;2023-03-01T15:28:52;7.60;99.90
54192;DHT22;40101;53.002;6.488;2023-03-01T15:31:24;7.60;99.90
54192;DHT22;40101;53.002;6.488;2023-03-01T15:33:51;7.70;99.90
54192;DHT22;40101;53.002;6.488;2023-03-01T15:36:43;7.60;99.90
54192;DHT22;40101;53.002;6.488;2023-03-01T15:39:36;7.60;99.90
54192;DHT22;40101;53.002;6.488;2023-03-01T15:42:10;7.50;99.90
54192;DHT22;40101;53.002;6.488;2023-03-01T15:44:39;7.40;99.90
54192;DHT22;40101;53.002;6.488;2023-03-01T15:47:29;7.40;99.90
54192;DHT22;40101;53.002;6.488;2023-03-01T15:49:56;7.40;99.90
54192;DHT22;40101;53.002;6.488;2023-03-01T15:52:25;7.40;99.90
54192;DHT22;40101;53.002;6.488;2023-03-01T15:55:02;7.40;99.90
54192;DHT22;40101;53.002;6.488;2023-03-01T15:57:28;7.30;99.90
54192;DHT22;40101;53.002;6.488;2023-03-01T15:59:55;7.30;99.90
54192;DHT22;40101;53.002;6.488;2023-03-01T16:02:22;7.30;99.90
54192;DHT22;40101;53.002;6.488;2023-03-01T16:04:48;7.30;99.90
54192;DHT22;40101;53.002;6.488;2023-03-01T16:07:15;7.20;99.90
54192;DHT22;40101;53.002;6.488;2023-03-01T16:09:40;7.20;99.90
54192;DHT22;40101;53.002;6.488;2023-03-01T16:12:14;7.10;99.90
54192;DHT22;40101;53.002;6.488;2023-03-01T16:14:40;7.10;99.90
54192;DHT22;40101;53.002;6.488;2023-03-01T16:17:06;7.10;99.90
54192;DHT22;40101;53.002;6.488;2023-03-01T16:19:36;7.00;99.90
54192;DHT22;40101;53.002;6.488;2023-03-01T16:22:03;7.00;99.90
54192;DHT22;40101;53.002;6.488;2023-03-01T16:24:28;7.00;99.90
54192;DHT22;40101;53.002;6.488;2023-03-01T16:26:54;6.90;99.90
54192;DHT22;40101;53.002;6.488;2023-03-01T16:29:19;6.90;99.90
54192;DHT22;40101;53.002;6.488;2023-03-01T16:31:45;6.80;99.90
54192;DHT22;40101;53.002;6.488;2023-03-01T16:34:11;6.80;99.90
54192;DHT22;40101;53.002;6.488;2023-03-01T16:36:36;6.70;99.90
54192;DHT22;40101;53.002;6.488;2023-03-01T16:39:02;6.60;99.90
54192;DHT22;40101;53.002;6.488;2023-03-01T16:41:28;6.60;99.90
54192;DHT22;40101;53.002;6.488;2023-03-01T16:43:54;6.50;99.90
54192;DHT22;40101;53.002;6.488;2023-03-01T16:46:22;6.50;99.90
54192;DHT22;40101;53.002;6.488;2023-03-01T16:48:48;6.40;99.90
54192;DHT22;40101;53.002;6.488;2023-03-01T16:51:15;6.30;99.90
54192;DHT22;40101;53.002;6.488;2023-03-01T16:53:41;6.30;99.90
54192;DHT22;40101;53.002;6.488;2023-03-01T16:56:09;6.20;99.90
54192;DHT22;40101;53.002;6.488;2023-03-01T16:58:36;6.10;99.90
54192;DHT22;40101;53.002;6.488;2023-03-01T17:01:11;6.00;99.90
54192;DHT22;40101;53.002;6.488;2023-03-01T17:03:38;5.90;99.90
54192;DHT22;40101;53.002;6.488;2023-03-01T17:06:06;5.80;99.90
54192;DHT22;40101;53.002;6.488;2023-03-01T17:08:32;5.80;99.90
54192;DHT22;40101;53.002;6.488;2023-03-01T17:11:13;5.70;99.90
54192;DHT22;40101;53.002;6.488;2023-03-01T17:13:40;5.60;99.90
54192;DHT22;40101;53.002;6.488;2023-03-01T17:16:07;5.50;99.90
54192;DHT22;40101;53.002;6.488;2023-03-01T17:18:33;5.40;99.90
54192;DHT22;40101;53.002;6.488;2023-03-01T17:20:59;5.40;99.90
54192;DHT22;40101;53.002;6.488;2023-03-01T17:23:27;5.40;99.90
54192;DHT22;40101;53.002;6.488;2023-03-01T17:25:53;5.30;99.90
54192;DHT22;40101;53.002;6.488;2023-03-01T17:28:21;5.20;99.90
54192;DHT22;40101;53.002;6.488;2023-03-01T17:30:47;5.20;99.90
54192;DHT22;40101;53.002;6.488;2023-03-01T17:33:14;5.10;99.90
54192;DHT22;40101;53.002;6.488;2023-03-01T17:35:39;5.10;99.90
54192;DHT22;40101;53.002;6.488;2023-03-01T17:38:06;5.10;99.90
54192;DHT22;40101;53.002;6.488;2023-03-01T17:40:32;5.00;99.90
54192;DHT22;40101;53.002;6.488;2023-03-01T17:43:00;5.00;99.90
54192;DHT22;40101;53.002;6.488;2023-03-01T17:45:27;5.00;99.90
54192;DHT22;40101;53.002;6.488;2023-03-01T17:47:53;4.90;99.90
54192;DHT22;40101;53.002;6.488;2023-03-01T17:50:18;4.90;99.90
54192;DHT22;40101;53.002;6.488;2023-03-01T17:52:44;4.90;99.90
54192;DHT22;40101;53.002;6.488;2023-03-01T17:55:10;4.80;99.90